createdAt,value
2017-04-09T00:00:07.101Z,6.95
2017-04-09T00:01:06.319Z,9.17
2017-04-09T00:02:06.297Z,6.22
2017-04-09T00:03:05.473Z,6.97
2017-04-09T00:04:04.714Z,6.35
2017-04-09T00:05:03.913Z,7.30
2017-04-09T00:06:03.156Z,6.68
2017-04-09T00:07:02.332Z,6.72
2017-04-09T00:08:02.265Z,5.83
2017-04-09T00:09:01.452Z,5.68
2017-04-09T00:10:00.989Z,6.07
2017-04-09T00:11:00.206Z,6.52
2017-04-09T00:12:00.146Z,6.22
2017-04-09T00:12:59.353Z,6.87
2017-04-09T00:13:58.587Z,6.25
2017-04-09T00:14:57.769Z,6.27
2017-04-09T00:15:56.980Z,6.35
2017-04-09T00:16:56.897Z,6.78
2017-04-09T00:17:56.133Z,5.15
2017-04-09T00:18:55.320Z,6.32
2017-04-09T00:19:54.520Z,10.10
2017-04-09T00:20:53.743Z,9.77
2017-04-09T00:21:53.686Z,8.72
2017-04-09T00:22:52.872Z,8.97
2017-04-09T00:23:52.091Z,8.10
2017-04-09T00:24:51.261Z,7.43
2017-04-09T00:25:50.436Z,6.15
2017-04-09T00:26:49.609Z,6.12
2017-04-09T00:27:48.826Z,7.22
2017-04-09T00:28:48.745Z,10.65
2017-04-09T00:29:47.948Z,11.20
2017-04-09T00:30:47.128Z,7.00
2017-04-09T00:31:46.345Z,5.40
2017-04-09T00:32:46.291Z,6.52
2017-04-09T00:33:45.501Z,5.92
2017-04-09T00:34:44.685Z,4.15
2017-04-09T00:35:43.888Z,5.02
2017-04-09T00:36:43.825Z,5.48
2017-04-09T00:37:43.009Z,7.73
2017-04-09T00:38:42.212Z,9.10
2017-04-09T00:39:41.417Z,6.37
2017-04-09T00:40:40.660Z,8.53
2017-04-09T00:41:39.848Z,6.03
2017-04-09T00:42:39.046Z,6.02
2017-04-09T00:43:38.261Z,7.00
2017-04-09T00:44:37.453Z,7.15
2017-04-09T00:45:36.669Z,5.82
2017-04-09T00:46:36.620Z,5.97
2017-04-09T00:47:35.816Z,5.80
2017-04-09T00:48:34.993Z,5.30
2017-04-09T00:49:34.928Z,6.58
2017-04-09T00:50:34.127Z,6.38
2017-04-09T00:51:33.352Z,5.67
2017-04-09T00:52:33.304Z,7.18
2017-04-09T00:53:32.537Z,4.53
2017-04-09T00:54:31.716Z,6.37
2017-04-09T00:55:30.896Z,6.60
2017-04-09T00:56:30.323Z,5.35
2017-04-09T00:57:29.829Z,7.00
2017-04-09T00:58:29.017Z,7.35
2017-04-09T00:59:28.194Z,6.20
2017-04-09T01:00:27.439Z,10.90
2017-04-09T01:01:27.376Z,6.80
2017-04-09T01:02:26.631Z,7.87
2017-04-09T01:03:26.580Z,7.18
2017-04-09T01:04:25.752Z,6.75
2017-04-09T01:05:24.939Z,6.50
2017-04-09T01:06:24.160Z,6.20
2017-04-09T01:07:23.341Z,4.57
2017-04-09T01:08:22.524Z,5.78
2017-04-09T01:09:22.041Z,4.55
2017-04-09T01:10:21.346Z,6.17
2017-04-09T01:11:21.313Z,5.90
2017-04-09T01:12:20.517Z,4.45
2017-04-09T01:13:19.701Z,10.78
2017-04-09T01:14:18.977Z,9.02
2017-04-09T01:15:18.504Z,7.65
2017-04-09T01:16:18.429Z,7.27
2017-04-09T01:17:17.632Z,6.97
2017-04-09T01:18:17.557Z,8.20
2017-04-09T01:19:16.736Z,7.37
2017-04-09T01:20:15.965Z,5.35
2017-04-09T01:21:15.215Z,8.10
2017-04-09T01:22:14.463Z,6.90
2017-04-09T01:23:14.408Z,6.07
2017-04-09T01:24:14.328Z,5.37
2017-04-09T01:25:13.541Z,7.55
2017-04-09T01:26:13.535Z,5.27
2017-04-09T01:27:12.757Z,4.37
2017-04-09T01:28:12.688Z,8.47
2017-04-09T01:29:11.888Z,7.00
2017-04-09T01:30:11.096Z,9.17
2017-04-09T01:31:10.324Z,9.68
2017-04-09T01:32:10.261Z,7.72
2017-04-09T01:33:09.479Z,9.80
2017-04-09T01:34:08.665Z,7.48
2017-04-09T01:35:07.897Z,6.08
2017-04-09T01:36:07.067Z,7.35
2017-04-09T01:37:06.306Z,6.53
2017-04-09T01:38:05.494Z,7.65
2017-04-09T01:39:05.576Z,8.65
2017-04-09T01:40:04.810Z,6.68
2017-04-09T01:41:03.991Z,8.98
2017-04-09T01:42:03.253Z,8.33
2017-04-09T01:43:02.447Z,5.27
2017-04-09T01:44:01.644Z,5.95
2017-04-09T01:45:01.245Z,5.68
2017-04-09T01:46:00.540Z,6.22
2017-04-09T01:46:59.726Z,7.80
2017-04-09T01:47:58.905Z,9.12
2017-04-09T01:48:58.081Z,10.93
2017-04-09T01:49:57.623Z,8.28
2017-04-09T01:50:56.869Z,8.18
2017-04-09T01:51:56.060Z,5.78
2017-04-09T01:52:55.245Z,8.62
2017-04-09T01:53:54.436Z,11.17
2017-04-09T01:54:53.633Z,10.48
2017-04-09T01:55:52.832Z,7.08
2017-04-09T01:56:52.800Z,7.28
2017-04-09T01:57:52.043Z,6.35
2017-04-09T01:58:51.323Z,6.35
2017-04-09T01:59:50.492Z,6.53
2017-04-09T02:00:50.442Z,6.23
2017-04-09T02:01:49.645Z,5.45
2017-04-09T02:02:49.104Z,11.15
2017-04-09T02:03:48.300Z,5.40
2017-04-09T02:04:47.506Z,7.72
2017-04-09T02:05:46.695Z,5.00
2017-04-09T02:06:45.876Z,6.75
2017-04-09T02:07:45.062Z,6.05
2017-04-09T02:08:44.575Z,4.43
2017-04-09T02:09:43.753Z,4.23
2017-04-09T02:10:43.607Z,4.75
2017-04-09T02:11:43.531Z,8.05
2017-04-09T02:12:42.721Z,8.40
2017-04-09T02:13:41.896Z,8.10
2017-04-09T02:14:41.128Z,8.08
2017-04-09T02:15:40.320Z,8.52
2017-04-09T02:16:39.612Z,9.97
2017-04-09T02:17:38.816Z,11.65
2017-04-09T02:18:38.022Z,7.57
2017-04-09T02:19:37.952Z,6.30
2017-04-09T02:20:37.896Z,5.42
2017-04-09T02:21:37.079Z,6.97
2017-04-09T02:22:36.304Z,6.18
2017-04-09T02:23:35.481Z,4.37
2017-04-09T02:24:35.409Z,4.55
2017-04-09T02:25:34.607Z,4.60
2017-04-09T02:26:34.067Z,6.05
2017-04-09T02:27:33.252Z,5.25
2017-04-09T02:28:32.449Z,4.70
2017-04-09T02:29:32.376Z,5.13
2017-04-09T02:30:31.552Z,4.50
2017-04-09T02:31:30.738Z,5.50
2017-04-09T02:32:30.024Z,4.48
2017-04-09T02:33:29.226Z,3.85
2017-04-09T02:34:28.440Z,6.67
2017-04-09T02:35:28.394Z,4.73
2017-04-09T02:36:27.582Z,4.77
2017-04-09T02:37:26.760Z,5.35
2017-04-09T02:38:25.974Z,7.50
2017-04-09T02:39:25.176Z,4.57
2017-04-09T02:40:25.125Z,5.82
2017-04-09T02:41:24.332Z,6.40
2017-04-09T02:42:23.577Z,4.83
2017-04-09T02:43:22.748Z,7.22
2017-04-09T02:44:22.280Z,6.03
2017-04-09T02:45:21.461Z,5.98
2017-04-09T02:46:21.376Z,7.87
2017-04-09T02:47:20.573Z,5.42
2017-04-09T02:48:19.773Z,5.75
2017-04-09T02:49:18.950Z,5.72
2017-04-09T02:50:18.897Z,6.35
2017-04-09T02:51:18.078Z,8.72
2017-04-09T02:52:17.305Z,9.67
2017-04-09T02:53:16.497Z,3.72
2017-04-09T02:54:15.685Z,8.47
2017-04-09T02:55:14.870Z,5.85
2017-04-09T02:56:14.075Z,4.08
2017-04-09T02:57:13.272Z,5.33
2017-04-09T02:58:13.196Z,8.27
2017-04-09T02:59:12.403Z,8.23
2017-04-09T03:00:11.624Z,8.25
2017-04-09T03:01:11.542Z,8.33
2017-04-09T03:02:10.980Z,6.55
2017-04-09T03:03:10.157Z,5.97
2017-04-09T03:04:09.332Z,5.28
2017-04-09T03:05:08.511Z,6.60
2017-04-09T03:06:07.700Z,4.80
2017-04-09T03:07:06.907Z,6.38
2017-04-09T03:08:06.149Z,5.65
2017-04-09T03:09:05.845Z,8.78
2017-04-09T03:10:05.032Z,5.97
2017-04-09T03:11:04.196Z,7.55
2017-04-09T03:12:04.113Z,5.27
2017-04-09T03:13:03.329Z,5.33
2017-04-09T03:14:02.564Z,6.47
2017-04-09T03:15:02.516Z,6.30
2017-04-09T03:16:01.691Z,5.35
2017-04-09T03:17:00.913Z,3.87
2017-04-09T03:18:00.113Z,5.35
2017-04-09T03:18:59.321Z,4.08
2017-04-09T03:19:58.841Z,3.53
2017-04-09T03:20:58.022Z,4.25
2017-04-09T03:21:57.229Z,5.02
2017-04-09T03:22:56.404Z,10.83
2017-04-09T03:23:55.580Z,4.60
2017-04-09T03:24:54.755Z,7.60
2017-04-09T03:25:54.240Z,7.98
2017-04-09T03:26:53.417Z,4.60
2017-04-09T03:27:52.609Z,4.27
2017-04-09T03:28:51.845Z,5.55
2017-04-09T03:29:51.024Z,3.57
2017-04-09T03:30:50.959Z,4.98
2017-04-09T03:31:50.164Z,4.45
2017-04-09T03:32:49.330Z,5.97
2017-04-09T03:33:48.508Z,6.03
2017-04-09T03:34:47.681Z,6.37
2017-04-09T03:35:46.908Z,4.98
2017-04-09T03:36:46.128Z,6.00
2017-04-09T03:37:45.543Z,4.08
2017-04-09T03:38:45.476Z,4.87
2017-04-09T03:39:44.665Z,7.03
2017-04-09T03:40:43.872Z,4.75
2017-04-09T03:41:43.813Z,7.68
2017-04-09T03:42:43.741Z,3.82
2017-04-09T03:43:42.961Z,6.68
2017-04-09T03:44:42.160Z,5.80
2017-04-09T03:45:41.411Z,4.33
2017-04-09T03:46:40.603Z,4.18
2017-04-09T03:47:40.553Z,4.92
2017-04-09T03:48:39.757Z,6.13
2017-04-09T03:49:38.980Z,4.90
2017-04-09T03:50:38.905Z,5.03
2017-04-09T03:51:38.830Z,6.18
2017-04-09T03:52:38.019Z,3.65
2017-04-09T03:53:37.245Z,5.35
2017-04-09T03:54:36.435Z,6.82
2017-04-09T03:55:36.593Z,7.15
2017-04-09T03:56:35.788Z,7.98
2017-04-09T03:57:34.980Z,5.48
2017-04-09T03:58:34.169Z,4.53
2017-04-09T03:59:33.360Z,5.08
2017-04-09T04:00:33.361Z,6.25
2017-04-09T04:01:33.344Z,6.03
2017-04-09T04:02:32.530Z,5.65
2017-04-09T04:03:31.729Z,5.25
2017-04-09T04:04:31.656Z,6.43
2017-04-09T04:05:30.835Z,8.58
2017-04-09T04:06:30.012Z,9.70
2017-04-09T04:07:29.977Z,8.57
2017-04-09T04:08:29.160Z,6.07
2017-04-09T04:09:28.375Z,10.03
2017-04-09T04:10:27.589Z,13.52
2017-04-09T04:11:26.780Z,8.62
2017-04-09T04:12:26.729Z,9.05
2017-04-09T04:13:26.248Z,8.12
2017-04-09T04:14:25.448Z,10.28
2017-04-09T04:15:24.640Z,9.97
2017-04-09T04:16:23.830Z,9.30
2017-04-09T04:17:23.763Z,14.22
2017-04-09T04:18:22.960Z,10.02
2017-04-09T04:19:22.171Z,9.67
2017-04-09T04:20:21.356Z,9.18
2017-04-09T04:21:20.545Z,7.20
2017-04-09T04:22:19.727Z,10.42
2017-04-09T04:23:18.947Z,9.95
2017-04-09T04:24:18.269Z,9.07
2017-04-09T04:25:17.479Z,8.65
2017-04-09T04:26:16.668Z,11.60
2017-04-09T04:27:15.861Z,10.68
2017-04-09T04:28:15.040Z,9.17
2017-04-09T04:29:14.231Z,8.10
2017-04-09T04:30:13.432Z,6.17
2017-04-09T04:31:12.867Z,4.93
2017-04-09T04:32:12.833Z,4.32
2017-04-09T04:33:12.025Z,5.17
2017-04-09T04:34:11.220Z,6.02
2017-04-09T04:35:10.447Z,6.22
2017-04-09T04:36:10.423Z,4.10
2017-04-09T04:37:09.641Z,5.03
2017-04-09T04:38:08.828Z,5.97
2017-04-09T04:39:08.021Z,6.90
2017-04-09T04:40:07.208Z,3.18
2017-04-09T04:41:06.409Z,7.10
2017-04-09T04:42:05.603Z,6.05
2017-04-09T04:43:04.829Z,5.03
2017-04-09T04:44:04.025Z,5.77
2017-04-09T04:45:03.237Z,6.05
2017-04-09T04:46:03.151Z,7.17
2017-04-09T04:47:02.345Z,5.08
2017-04-09T04:48:01.538Z,7.30
2017-04-09T04:49:01.032Z,5.37
2017-04-09T04:50:00.219Z,4.88
2017-04-09T04:50:59.408Z,6.15
2017-04-09T04:51:58.600Z,8.42
2017-04-09T04:52:57.797Z,4.37
2017-04-09T04:53:56.983Z,4.78
2017-04-09T04:54:56.244Z,5.78
2017-04-09T04:55:55.444Z,7.22
2017-04-09T04:56:55.396Z,4.78
2017-04-09T04:57:55.314Z,8.32
2017-04-09T04:58:54.508Z,5.63
2017-04-09T04:59:53.701Z,6.65
2017-04-09T05:00:52.980Z,5.55
2017-04-09T05:01:52.173Z,7.00
2017-04-09T05:02:51.365Z,7.08
2017-04-09T05:03:50.569Z,7.75
2017-04-09T05:04:49.757Z,8.20
2017-04-09T05:05:48.944Z,4.45
2017-04-09T05:06:48.152Z,3.72
2017-04-09T05:07:48.087Z,4.28
2017-04-09T05:08:47.269Z,4.73
2017-04-09T05:09:46.453Z,4.07
2017-04-09T05:10:45.642Z,5.25
2017-04-09T05:11:44.844Z,5.57
2017-04-09T05:12:44.065Z,3.75
2017-04-09T05:13:43.256Z,4.45
2017-04-09T05:14:42.473Z,3.00
2017-04-09T05:15:42.397Z,5.55
2017-04-09T05:16:41.585Z,4.12
2017-04-09T05:17:40.759Z,4.23
2017-04-09T05:18:39.969Z,3.82
2017-04-09T05:19:39.915Z,3.55
2017-04-09T05:20:39.109Z,4.17
2017-04-09T05:21:38.570Z,3.58
2017-04-09T05:22:37.760Z,3.98
2017-04-09T05:23:36.960Z,5.90
2017-04-09T05:24:36.192Z,4.35
2017-04-09T05:25:35.404Z,5.38
2017-04-09T05:26:34.596Z,3.67
2017-04-09T05:27:33.788Z,5.50
2017-04-09T05:28:32.980Z,3.58
2017-04-09T05:29:32.909Z,7.05
2017-04-09T05:30:32.448Z,5.73
2017-04-09T05:31:31.637Z,2.82
2017-04-09T05:32:30.823Z,4.42
2017-04-09T05:33:30.012Z,3.20
2017-04-09T05:34:29.193Z,4.83
2017-04-09T05:35:28.384Z,5.63
2017-04-09T05:36:27.653Z,4.07
2017-04-09T05:37:27.587Z,3.75
2017-04-09T05:38:26.771Z,4.13
2017-04-09T05:39:25.973Z,3.67
2017-04-09T05:40:25.917Z,5.35
2017-04-09T05:41:27.073Z,4.52
2017-04-09T05:42:26.624Z,4.47
2017-04-09T05:43:25.809Z,4.97
2017-04-09T05:44:24.992Z,6.00
2017-04-09T05:45:24.173Z,5.80
2017-04-09T05:46:24.106Z,5.63
2017-04-09T05:47:23.692Z,4.58
2017-04-09T05:48:23.619Z,4.73
2017-04-09T05:49:22.813Z,7.17
2017-04-09T05:50:22.016Z,5.05
2017-04-09T05:51:21.213Z,5.42
2017-04-09T05:52:20.416Z,5.22
2017-04-09T05:53:19.636Z,4.87
2017-04-09T05:54:19.572Z,6.58
2017-04-09T05:55:19.510Z,8.77
2017-04-09T05:56:18.708Z,7.43
2017-04-09T05:57:17.900Z,11.03
2017-04-09T05:58:17.124Z,10.83
2017-04-09T05:59:16.348Z,8.87
2017-04-09T06:00:15.540Z,9.15
2017-04-09T06:01:15.033Z,7.90
2017-04-09T06:02:14.492Z,8.88
2017-04-09T06:03:13.677Z,7.33
2017-04-09T06:04:12.894Z,6.27
2017-04-09T06:05:12.365Z,7.45
2017-04-09T06:06:11.558Z,9.80
2017-04-09T06:07:10.751Z,7.40
2017-04-09T06:08:09.953Z,10.92
2017-04-09T06:09:09.492Z,11.18
2017-04-09T06:10:08.713Z,14.48
2017-04-09T06:11:07.943Z,7.72
2017-04-09T06:12:07.873Z,7.58
2017-04-09T06:13:07.075Z,12.57
2017-04-09T06:14:06.283Z,8.05
2017-04-09T06:15:06.243Z,8.67
2017-04-09T06:16:05.467Z,9.60
2017-04-09T06:17:05.749Z,9.38
2017-04-09T06:18:04.944Z,10.42
2017-04-09T06:19:04.173Z,7.97
2017-04-09T06:20:03.353Z,9.70
2017-04-09T06:21:03.311Z,10.22
2017-04-09T06:22:02.512Z,10.15
2017-04-09T06:23:01.739Z,10.45
2017-04-09T06:24:01.685Z,9.97
2017-04-09T06:25:01.616Z,10.73
2017-04-09T06:26:00.820Z,13.43
2017-04-09T06:27:00.099Z,9.90
2017-04-09T06:27:59.322Z,8.57
2017-04-09T06:28:58.570Z,10.93
2017-04-09T06:29:57.772Z,9.70
2017-04-09T06:30:56.961Z,8.98
2017-04-09T06:31:56.154Z,8.35
2017-04-09T06:32:55.476Z,9.72
2017-04-09T06:33:54.681Z,11.08
2017-04-09T06:34:54.184Z,13.00
2017-04-09T06:35:54.114Z,16.52
2017-04-09T06:36:54.064Z,13.58
2017-04-09T06:37:53.264Z,10.35
2017-04-09T06:38:52.468Z,10.53
2017-04-09T06:39:51.669Z,11.25
2017-04-09T06:40:51.642Z,10.65
2017-04-09T06:41:50.873Z,9.65
2017-04-09T06:42:50.044Z,8.82
2017-04-09T06:43:49.228Z,12.35
2017-04-09T06:44:48.403Z,9.95
2017-04-09T06:45:47.589Z,11.33
2017-04-09T06:46:46.793Z,11.15
2017-04-09T06:47:45.965Z,11.73
2017-04-09T06:48:45.154Z,9.33
2017-04-09T06:49:44.333Z,8.62
2017-04-09T06:50:43.526Z,8.52
2017-04-09T06:51:42.714Z,6.58
2017-04-09T06:52:42.892Z,8.55
2017-04-09T06:53:42.074Z,9.05
2017-04-09T06:54:41.258Z,9.62
2017-04-09T06:55:40.451Z,8.27
2017-04-09T06:56:39.635Z,8.93
2017-04-09T06:57:38.817Z,9.08
2017-04-09T06:58:38.760Z,8.52
2017-04-09T06:59:37.953Z,8.85
2017-04-09T07:00:37.127Z,8.05
2017-04-09T07:01:36.305Z,10.08
2017-04-09T07:02:39.965Z,8.63
2017-04-09T07:03:39.169Z,9.23
2017-04-09T07:04:38.362Z,13.50
2017-04-09T07:05:37.582Z,11.08
2017-04-09T07:06:36.764Z,10.25
2017-04-09T07:07:35.952Z,9.85
2017-04-09T07:08:35.874Z,9.25
2017-04-09T07:09:35.091Z,9.77
2017-04-09T07:10:35.023Z,10.13
2017-04-09T07:11:34.233Z,11.10
2017-04-09T07:12:33.417Z,13.17
2017-04-09T07:13:32.613Z,11.45
2017-04-09T07:14:31.817Z,11.70
2017-04-09T07:15:31.040Z,14.20
2017-04-09T07:16:30.232Z,13.52
2017-04-09T07:17:29.432Z,11.13
2017-04-09T07:18:28.632Z,12.77
2017-04-09T07:19:27.816Z,9.15
2017-04-09T07:20:26.998Z,11.27
2017-04-09T07:21:26.235Z,10.20
2017-04-09T07:22:25.412Z,9.13
2017-04-09T07:23:24.603Z,11.87
2017-04-09T07:24:23.779Z,13.43
2017-04-09T07:25:22.981Z,15.57
2017-04-09T07:26:22.185Z,11.07
2017-04-09T07:27:21.664Z,13.18
2017-04-09T07:28:20.853Z,11.55
2017-04-09T07:29:20.038Z,10.58
2017-04-09T07:30:19.233Z,11.47
2017-04-09T07:31:18.429Z,12.90
2017-04-09T07:32:17.605Z,10.85
2017-04-09T07:33:16.841Z,12.92
2017-04-09T07:34:16.773Z,11.35
2017-04-09T07:35:15.956Z,9.82
2017-04-09T07:36:15.140Z,11.08
2017-04-09T07:37:14.333Z,10.20
2017-04-09T07:38:13.520Z,10.37
2017-04-09T07:39:12.743Z,12.70
2017-04-09T07:40:11.921Z,12.28
2017-04-09T07:41:11.145Z,11.62
2017-04-09T07:42:10.355Z,13.23
2017-04-09T07:43:09.569Z,11.48
2017-04-09T07:44:08.752Z,10.52
2017-04-09T07:45:07.965Z,11.10
2017-04-09T07:46:07.139Z,11.48
2017-04-09T07:47:06.425Z,12.52
2017-04-09T07:48:05.656Z,10.92
2017-04-09T07:49:05.577Z,9.57
2017-04-09T07:50:04.771Z,12.22
2017-04-09T07:51:03.976Z,11.83
2017-04-09T07:52:03.168Z,11.65
2017-04-09T07:53:03.107Z,11.12
2017-04-09T07:54:02.289Z,11.05
2017-04-09T07:55:01.473Z,12.31
2017-04-09T07:56:00.680Z,11.90
2017-04-09T07:56:59.848Z,9.34
2017-04-09T07:57:59.028Z,10.60
2017-04-09T07:58:58.212Z,11.17
2017-04-09T07:59:58.132Z,10.30
2017-04-09T08:00:57.324Z,9.39
2017-04-09T08:01:56.523Z,12.14
2017-04-09T08:02:55.724Z,10.83
2017-04-09T08:03:54.914Z,10.37
2017-04-09T08:04:54.097Z,11.26
2017-04-09T08:05:53.280Z,16.16
2017-04-09T08:06:52.719Z,12.07
2017-04-09T08:07:51.897Z,10.19
2017-04-09T08:08:51.086Z,12.90
2017-04-09T08:09:50.273Z,10.89
2017-04-09T08:10:49.443Z,8.99
2017-04-09T08:11:48.621Z,11.64
2017-04-09T08:12:47.852Z,10.65
2017-04-09T08:13:47.052Z,11.54
2017-04-09T08:14:46.240Z,12.07
2017-04-09T08:15:45.433Z,12.08
2017-04-09T08:16:44.616Z,11.38
2017-04-09T08:17:43.788Z,9.16
2017-04-09T08:18:43.955Z,11.25
2017-04-09T08:19:43.138Z,12.27
2017-04-09T08:20:42.327Z,11.78
2017-04-09T08:21:41.536Z,9.42
2017-04-09T08:22:40.747Z,13.72
2017-04-09T08:23:39.933Z,11.75
2017-04-09T08:24:39.147Z,14.18
2017-04-09T08:25:38.332Z,10.32
2017-04-09T08:26:37.509Z,12.69
2017-04-09T08:27:36.700Z,13.77
2017-04-09T08:28:36.635Z,10.60
2017-04-09T08:29:35.840Z,12.25
2017-04-09T08:30:35.070Z,19.89
2017-04-09T08:31:34.285Z,11.22
2017-04-09T08:32:33.476Z,12.72
2017-04-09T08:33:32.649Z,12.97
2017-04-09T08:34:32.077Z,11.64
2017-04-09T08:35:31.292Z,13.52
2017-04-09T08:36:30.481Z,15.30
2017-04-09T08:37:29.663Z,9.50
2017-04-09T08:38:28.864Z,12.04
2017-04-09T08:39:28.049Z,11.19
2017-04-09T08:40:27.240Z,13.97
2017-04-09T08:41:28.299Z,11.07
2017-04-09T08:42:27.496Z,9.53
2017-04-09T08:43:26.677Z,12.26
2017-04-09T08:44:25.873Z,13.16
2017-04-09T08:45:25.068Z,13.17
2017-04-09T08:46:24.281Z,12.30
2017-04-09T08:47:24.204Z,13.00
2017-04-09T08:48:23.396Z,11.20
2017-04-09T08:49:22.581Z,11.70
2017-04-09T08:50:21.776Z,12.37
2017-04-09T08:51:20.965Z,11.66
2017-04-09T08:52:20.489Z,13.94
2017-04-09T08:53:19.676Z,11.67
2017-04-09T08:54:19.265Z,11.61
2017-04-09T08:55:18.443Z,12.59
2017-04-09T08:56:18.403Z,11.60
2017-04-09T08:57:17.598Z,11.14
2017-04-09T08:58:16.822Z,10.86
2017-04-09T08:59:16.741Z,11.34
2017-04-09T09:00:16.663Z,13.11
2017-04-09T09:01:15.839Z,13.30
2017-04-09T09:02:15.013Z,12.27
2017-04-09T09:03:14.196Z,11.09
2017-04-09T09:04:14.149Z,10.93
2017-04-09T09:05:13.340Z,12.61
2017-04-09T09:06:12.529Z,10.60
2017-04-09T09:07:11.701Z,10.73
2017-04-09T09:08:10.883Z,13.59
2017-04-09T09:09:10.117Z,10.96
2017-04-09T09:10:09.300Z,12.19
2017-04-09T09:11:08.492Z,10.51
2017-04-09T09:12:07.728Z,12.46
2017-04-09T09:13:06.902Z,9.94
2017-04-09T09:14:06.088Z,10.41
2017-04-09T09:15:05.323Z,11.47
2017-04-09T09:16:04.533Z,9.60
2017-04-09T09:17:03.715Z,10.14
2017-04-09T09:18:02.920Z,10.60
2017-04-09T09:19:02.104Z,10.97
2017-04-09T09:20:02.033Z,10.14
2017-04-09T09:21:01.253Z,10.50
2017-04-09T09:22:00.454Z,10.90
2017-04-09T09:22:59.632Z,10.37
2017-04-09T09:23:59.548Z,10.47
2017-04-09T09:24:59.476Z,16.29
2017-04-09T09:25:58.654Z,9.63
2017-04-09T09:26:57.864Z,11.53
2017-04-09T09:27:57.053Z,10.10
2017-04-09T09:28:56.240Z,10.27
2017-04-09T09:29:55.424Z,9.90
2017-04-09T09:30:54.601Z,11.87
2017-04-09T09:31:53.826Z,12.73
2017-04-09T09:32:53.011Z,13.03
2017-04-09T09:33:52.199Z,12.33
2017-04-09T09:34:51.390Z,14.16
2017-04-09T09:35:50.571Z,15.11
2017-04-09T09:36:49.758Z,10.57
2017-04-09T09:37:49.709Z,13.60
2017-04-09T09:38:48.925Z,13.44
2017-04-09T09:39:48.864Z,13.90
2017-04-09T09:40:48.068Z,14.10
2017-04-09T09:41:48.506Z,13.23
2017-04-09T09:42:47.731Z,11.86
2017-04-09T09:43:47.676Z,11.20
2017-04-09T09:44:46.877Z,14.33
2017-04-09T09:45:46.819Z,11.11
2017-04-09T09:46:46.020Z,13.83
2017-04-09T09:47:45.220Z,12.96
2017-04-09T09:48:45.188Z,12.14
2017-04-09T09:49:44.388Z,12.40
2017-04-09T09:50:43.602Z,13.19
2017-04-09T09:51:43.547Z,13.66
2017-04-09T09:52:42.762Z,11.83
2017-04-09T09:53:41.978Z,12.00
2017-04-09T09:54:41.225Z,12.53
2017-04-09T09:55:40.452Z,14.16
2017-04-09T09:56:39.649Z,11.34
2017-04-09T09:57:38.873Z,13.26
2017-04-09T09:58:38.064Z,12.00
2017-04-09T09:59:37.277Z,10.31
2017-04-09T10:00:36.533Z,10.63
2017-04-09T10:01:35.739Z,12.59
2017-04-09T10:02:35.313Z,12.61
2017-04-09T10:03:34.508Z,12.86
2017-04-09T10:04:34.772Z,13.31
2017-04-09T10:05:34.009Z,12.04
2017-04-09T10:06:33.977Z,12.00
2017-04-09T10:07:33.194Z,11.90
2017-04-09T10:08:33.182Z,12.33
2017-04-09T10:09:32.393Z,12.54
2017-04-09T10:10:31.636Z,12.71
2017-04-09T10:11:30.856Z,11.47
2017-04-09T10:12:30.057Z,13.71
2017-04-09T10:13:29.264Z,16.01
2017-04-09T10:14:28.457Z,11.54
2017-04-09T10:15:27.672Z,11.49
2017-04-09T10:16:26.916Z,11.04
2017-04-09T10:17:26.167Z,11.41
2017-04-09T10:18:26.792Z,11.53
2017-04-09T10:19:30.079Z,13.94
2017-04-09T10:20:29.283Z,13.89
2017-04-09T10:21:29.246Z,13.16
2017-04-09T10:22:28.457Z,13.30
2017-04-09T10:23:27.704Z,15.34
2017-04-09T10:24:26.993Z,18.19
2017-04-09T10:25:26.208Z,11.77
2017-04-09T10:26:25.417Z,11.27
2017-04-09T10:27:24.651Z,14.69
2017-04-09T10:28:23.848Z,14.44
2017-04-09T10:29:23.048Z,11.00
2017-04-09T10:30:22.253Z,12.57
2017-04-09T10:31:21.462Z,12.40
2017-04-09T10:32:20.723Z,12.81
2017-04-09T10:33:19.959Z,14.43
2017-04-09T10:34:19.163Z,12.37
2017-04-09T10:35:18.356Z,13.06
2017-04-09T10:36:18.328Z,14.43
2017-04-09T10:37:17.549Z,13.30
2017-04-09T10:38:16.755Z,12.81
2017-04-09T10:39:16.736Z,14.11
2017-04-09T10:40:15.956Z,12.33
2017-04-09T10:41:15.177Z,12.53
2017-04-09T10:42:14.483Z,13.69
2017-04-09T10:43:13.668Z,12.93
2017-04-09T10:44:12.893Z,15.97
2017-04-09T10:45:12.891Z,14.33
2017-04-09T10:46:12.249Z,13.89
2017-04-09T10:47:11.417Z,11.76
2017-04-09T10:48:10.596Z,14.39
2017-04-09T10:49:09.783Z,11.76
2017-04-09T10:50:14.575Z,13.84
2017-04-09T10:51:13.784Z,12.24
2017-04-09T10:52:12.968Z,12.17
2017-04-09T10:53:12.201Z,14.94
2017-04-09T10:54:11.389Z,10.76
2017-04-09T10:55:10.588Z,12.33
2017-04-09T10:56:10.049Z,12.17
2017-04-09T10:57:09.235Z,11.76
2017-04-09T10:58:08.459Z,12.30
2017-04-09T10:59:07.668Z,12.96
2017-04-09T11:00:06.871Z,13.11
2017-04-09T11:01:06.061Z,13.40
2017-04-09T11:02:05.280Z,10.70
2017-04-09T11:03:04.461Z,9.84
2017-04-09T11:04:03.657Z,12.56
2017-04-09T11:05:02.856Z,11.43
2017-04-09T11:06:02.040Z,12.86
2017-04-09T11:07:01.258Z,12.50
2017-04-09T11:08:00.443Z,11.73
2017-04-09T11:08:59.651Z,12.33
2017-04-09T11:09:58.835Z,11.06
2017-04-09T11:10:58.024Z,11.51
2017-04-09T11:11:57.245Z,10.97
2017-04-09T11:12:57.165Z,11.07
2017-04-09T11:13:56.340Z,11.36
2017-04-09T11:14:55.519Z,11.07
2017-04-09T11:15:54.706Z,10.77
2017-04-09T11:16:53.892Z,11.36
2017-04-09T11:17:53.087Z,14.14
2017-04-09T11:18:52.267Z,10.63
2017-04-09T11:19:51.467Z,10.80
2017-04-09T11:20:50.650Z,11.74
2017-04-09T11:21:49.840Z,14.74
2017-04-09T11:22:49.063Z,12.56
2017-04-09T11:23:48.241Z,9.84
2017-04-09T11:24:47.427Z,11.79
2017-04-09T11:25:46.651Z,11.07
2017-04-09T11:26:45.840Z,10.67
2017-04-09T11:27:45.007Z,9.73
2017-04-09T11:28:44.968Z,9.94
2017-04-09T11:29:44.152Z,8.76
2017-04-09T11:30:43.334Z,10.86
2017-04-09T11:31:43.258Z,11.59
2017-04-09T11:32:42.429Z,9.30
2017-04-09T11:33:41.653Z,9.63
2017-04-09T11:34:41.577Z,9.64
2017-04-09T11:35:40.764Z,8.41
2017-04-09T11:36:39.949Z,8.81
2017-04-09T11:37:39.136Z,8.66
2017-04-09T11:38:39.359Z,8.40
2017-04-09T11:39:38.551Z,8.27
2017-04-09T11:40:38.475Z,10.71
2017-04-09T11:41:37.713Z,8.16
2017-04-09T11:42:36.912Z,7.64
2017-04-09T11:43:36.104Z,7.07
2017-04-09T11:44:36.082Z,8.79
2017-04-09T11:45:35.280Z,8.67
2017-04-09T11:46:34.516Z,10.63
2017-04-09T11:47:34.168Z,9.41
2017-04-09T11:48:34.097Z,8.10
2017-04-09T11:49:33.323Z,9.39
2017-04-09T11:50:32.510Z,8.30
2017-04-09T11:51:31.705Z,7.81
2017-04-09T11:52:30.900Z,9.26
2017-04-09T11:53:30.090Z,10.13
2017-04-09T11:54:29.300Z,10.37
2017-04-09T11:55:28.524Z,7.84
2017-04-09T11:56:28.449Z,8.04
2017-04-09T11:57:27.655Z,10.94
2017-04-09T11:58:27.261Z,8.97
2017-04-09T11:59:26.448Z,8.04
2017-04-09T12:00:25.675Z,8.84
2017-04-09T12:01:25.604Z,9.81
2017-04-09T12:02:24.808Z,8.24
2017-04-09T12:03:24.013Z,8.54
2017-04-09T12:04:23.216Z,8.41
2017-04-09T12:05:22.420Z,10.20
2017-04-09T12:06:21.631Z,7.04
2017-04-09T12:07:20.820Z,8.44
2017-04-09T12:08:20.018Z,10.00
2017-04-09T12:09:19.371Z,9.64
2017-04-09T12:10:18.562Z,9.21
2017-04-09T12:11:17.796Z,8.57
2017-04-09T12:12:17.752Z,9.76
2017-04-09T12:13:16.936Z,8.50
2017-04-09T12:14:16.876Z,9.56
2017-04-09T12:15:16.064Z,7.54
2017-04-09T12:16:15.277Z,7.41
2017-04-09T12:17:14.492Z,9.40
2017-04-09T12:18:13.693Z,8.56
2017-04-09T12:19:12.891Z,10.36
2017-04-09T12:20:12.828Z,8.34
2017-04-09T12:21:12.023Z,12.39
2017-04-09T12:22:11.243Z,8.33
2017-04-09T12:23:10.448Z,8.06
2017-04-09T12:24:09.648Z,7.64
2017-04-09T12:25:08.856Z,7.93
2017-04-09T12:26:08.044Z,9.53
2017-04-09T12:27:07.242Z,7.57
2017-04-09T12:28:07.202Z,8.17
2017-04-09T12:29:06.392Z,8.10
2017-04-09T12:30:05.572Z,7.97
2017-04-09T12:31:04.815Z,8.36
2017-04-09T12:32:04.005Z,9.19
2017-04-09T12:33:04.037Z,8.66
2017-04-09T12:34:03.233Z,8.31
2017-04-09T12:35:02.420Z,7.57
2017-04-09T12:36:01.621Z,8.63
2017-04-09T12:37:00.820Z,5.90
2017-04-09T12:38:00.013Z,6.73
2017-04-09T12:38:59.224Z,8.11
2017-04-09T12:39:58.430Z,9.63
2017-04-09T12:40:58.360Z,7.81
2017-04-09T12:41:57.551Z,7.93
2017-04-09T12:42:56.739Z,9.89
2017-04-09T12:43:55.937Z,7.80
2017-04-09T12:44:55.132Z,9.37
2017-04-09T12:45:54.311Z,8.46
2017-04-09T12:46:53.500Z,7.40
2017-04-09T12:47:52.681Z,7.53
2017-04-09T12:48:51.868Z,7.21
2017-04-09T12:49:51.076Z,7.53
2017-04-09T12:50:51.013Z,7.46
2017-04-09T12:51:50.198Z,7.59
2017-04-09T12:52:49.385Z,8.40
2017-04-09T12:53:48.568Z,7.71
2017-04-09T12:54:47.740Z,6.71
2017-04-09T12:55:47.711Z,8.84
2017-04-09T12:56:46.892Z,8.44
2017-04-09T12:57:46.064Z,6.87
2017-04-09T12:58:45.972Z,8.47
2017-04-09T12:59:45.906Z,9.20